Attawapiskat Airport

CYAT | YAT

Attawapiskat , Ontario , Canada

Thursday, September 19th, 2019 | 15:34

Weather

CYAT 191926Z AUTO 31014G24KT 9SM SCT007 OVC012 13/12 A2980 RMK PRESRR SLP093

Charts

No Charts Available

Gates

No Gates Available

Runways

No Runways Available

Events

No events for this airport


New event